sensor_id;sensor_type;location;lat;lon;timestamp;P1;durP1;ratioP1;P2;durP2;ratioP2
6739;SDS011;3407;49.882;10.920;2022-12-07T00:01:34;8.13;;;6.20;;
6739;SDS011;3407;49.882;10.920;2022-12-07T00:06:33;6.23;;;5.47;;
6739;SDS011;3407;49.882;10.920;2022-12-07T00:11:31;7.90;;;6.17;;
6739;SDS011;3407;49.882;10.920;2022-12-07T00:16:28;7.17;;;5.87;;
6739;SDS011;3407;49.882;10.920;2022-12-07T00:21:26;7.77;;;6.20;;
6739;SDS011;3407;49.882;10.920;2022-12-07T00:26:24;7.97;;;6.00;;
6739;SDS011;3407;49.882;10.920;2022-12-07T00:31:29;8.53;;;6.47;;
6739;SDS011;3407;49.882;10.920;2022-12-07T00:36:30;8.37;;;6.63;;
6739;SDS011;3407;49.882;10.920;2022-12-07T00:41:26;7.30;;;6.37;;
6739;SDS011;3407;49.882;10.920;2022-12-07T00:46:23;8.10;;;6.47;;
6739;SDS011;3407;49.882;10.920;2022-12-07T00:51:20;7.00;;;6.30;;
6739;SDS011;3407;49.882;10.920;2022-12-07T01:01:17;8.63;;;6.50;;
6739;SDS011;3407;49.882;10.920;2022-12-07T01:06:17;9.03;;;6.80;;
6739;SDS011;3407;49.882;10.920;2022-12-07T01:11:18;8.40;;;7.53;;
6739;SDS011;3407;49.882;10.920;2022-12-07T01:16:16;8.50;;;7.17;;
6739;SDS011;3407;49.882;10.920;2022-12-07T01:21:13;8.00;;;6.30;;
6739;SDS011;3407;49.882;10.920;2022-12-07T01:26:12;9.37;;;6.60;;
6739;SDS011;3407;49.882;10.920;2022-12-07T01:31:10;8.87;;;7.20;;
6739;SDS011;3407;49.882;10.920;2022-12-07T01:41:11;8.90;;;7.40;;
6739;SDS011;3407;49.882;10.920;2022-12-07T01:46:07;10.10;;;7.23;;
6739;SDS011;3407;49.882;10.920;2022-12-07T01:51:04;11.63;;;6.77;;
6739;SDS011;3407;49.882;10.920;2022-12-07T01:56:03;7.33;;;6.40;;
6739;SDS011;3407;49.882;10.920;2022-12-07T02:01:00;9.17;;;7.13;;
6739;SDS011;3407;49.882;10.920;2022-12-07T02:05:56;9.07;;;6.57;;
6739;SDS011;3407;49.882;10.920;2022-12-07T02:10:54;10.63;;;7.70;;
6739;SDS011;3407;49.882;10.920;2022-12-07T02:16:09;10.03;;;7.37;;
6739;SDS011;3407;49.882;10.920;2022-12-07T02:31:19;10.83;;;7.90;;
6739;SDS011;3407;49.882;10.920;2022-12-07T02:36:18;8.40;;;6.97;;
6739;SDS011;3407;49.882;10.920;2022-12-07T02:41:30;10.37;;;7.83;;
6739;SDS011;3407;49.882;10.920;2022-12-07T02:46:31;11.70;;;8.80;;
6739;SDS011;3407;49.882;10.920;2022-12-07T02:51:30;13.70;;;8.30;;
6739;SDS011;3407;49.882;10.920;2022-12-07T02:56:39;13.67;;;8.33;;
6739;SDS011;3407;49.882;10.920;2022-12-07T03:01:50;9.83;;;7.40;;
6739;SDS011;3407;49.882;10.920;2022-12-07T03:12:29;10.53;;;7.70;;
6739;SDS011;3407;49.882;10.920;2022-12-07T03:17:30;10.37;;;7.43;;
6739;SDS011;3407;49.882;10.920;2022-12-07T03:22:30;13.33;;;9.20;;
6739;SDS011;3407;49.882;10.920;2022-12-07T03:27:31;10.50;;;8.27;;
6739;SDS011;3407;49.882;10.920;2022-12-07T03:32:32;12.90;;;8.17;;
6739;SDS011;3407;49.882;10.920;2022-12-07T03:42:49;10.60;;;7.57;;
6739;SDS011;3407;49.882;10.920;2022-12-07T03:47:47;10.57;;;8.47;;
6739;SDS011;3407;49.882;10.920;2022-12-07T03:52:55;13.63;;;8.83;;
6739;SDS011;3407;49.882;10.920;2022-12-07T03:57:58;12.00;;;8.53;;
6739;SDS011;3407;49.882;10.920;2022-12-07T04:02:57;10.53;;;8.43;;
6739;SDS011;3407;49.882;10.920;2022-12-07T04:07:52;13.20;;;8.83;;
6739;SDS011;3407;49.882;10.920;2022-12-07T04:12:48;14.83;;;9.20;;
6739;SDS011;3407;49.882;10.920;2022-12-07T04:17:43;13.03;;;9.07;;
6739;SDS011;3407;49.882;10.920;2022-12-07T04:22:39;10.67;;;8.70;;
6739;SDS011;3407;49.882;10.920;2022-12-07T04:27:35;11.07;;;8.17;;
6739;SDS011;3407;49.882;10.920;2022-12-07T04:32:30;12.20;;;8.90;;
6739;SDS011;3407;49.882;10.920;2022-12-07T04:37:26;15.70;;;9.77;;
6739;SDS011;3407;49.882;10.920;2022-12-07T04:42:21;14.80;;;9.93;;
6739;SDS011;3407;49.882;10.920;2022-12-07T04:47:17;14.13;;;8.70;;
6739;SDS011;3407;49.882;10.920;2022-12-07T04:52:12;13.30;;;9.30;;
6739;SDS011;3407;49.882;10.920;2022-12-07T04:57:08;13.07;;;8.77;;
6739;SDS011;3407;49.882;10.920;2022-12-07T05:02:04;12.13;;;8.17;;
6739;SDS011;3407;49.882;10.920;2022-12-07T05:06:59;11.23;;;9.03;;
6739;SDS011;3407;49.882;10.920;2022-12-07T05:11:55;13.47;;;8.30;;
6739;SDS011;3407;49.882;10.920;2022-12-07T05:16:50;12.83;;;9.30;;
6739;SDS011;3407;49.882;10.920;2022-12-07T05:21:46;15.77;;;8.57;;
6739;SDS011;3407;49.882;10.920;2022-12-07T05:26:43;14.57;;;9.87;;
6739;SDS011;3407;49.882;10.920;2022-12-07T05:31:39;14.17;;;9.50;;
6739;SDS011;3407;49.882;10.920;2022-12-07T05:36:35;13.93;;;9.00;;
6739;SDS011;3407;49.882;10.920;2022-12-07T05:41:30;14.30;;;9.53;;
6739;SDS011;3407;49.882;10.920;2022-12-07T05:46:44;11.87;;;9.17;;
6739;SDS011;3407;49.882;10.920;2022-12-07T05:51:40;14.87;;;10.90;;
6739;SDS011;3407;49.882;10.920;2022-12-07T05:56:36;14.87;;;9.10;;
6739;SDS011;3407;49.882;10.920;2022-12-07T06:01:32;13.43;;;9.33;;
6739;SDS011;3407;49.882;10.920;2022-12-07T06:06:27;15.20;;;8.97;;
6739;SDS011;3407;49.882;10.920;2022-12-07T06:11:23;12.00;;;9.17;;
6739;SDS011;3407;49.882;10.920;2022-12-07T06:16:37;14.97;;;9.40;;
6739;SDS011;3407;49.882;10.920;2022-12-07T06:21:33;14.07;;;9.47;;
6739;SDS011;3407;49.882;10.920;2022-12-07T06:26:28;16.00;;;10.63;;
6739;SDS011;3407;49.882;10.920;2022-12-07T06:31:24;18.43;;;10.50;;
6739;SDS011;3407;49.882;10.920;2022-12-07T06:36:19;15.50;;;10.40;;
6739;SDS011;3407;49.882;10.920;2022-12-07T06:41:15;15.93;;;10.63;;
6739;SDS011;3407;49.882;10.920;2022-12-07T06:46:10;18.20;;;10.50;;
6739;SDS011;3407;49.882;10.920;2022-12-07T06:51:06;17.00;;;10.37;;
6739;SDS011;3407;49.882;10.920;2022-12-07T06:56:02;16.67;;;10.47;;
6739;SDS011;3407;49.882;10.920;2022-12-07T07:00:58;17.37;;;11.17;;
6739;SDS011;3407;49.882;10.920;2022-12-07T07:05:54;15.40;;;9.63;;
6739;SDS011;3407;49.882;10.920;2022-12-07T07:10:49;14.60;;;9.40;;
6739;SDS011;3407;49.882;10.920;2022-12-07T07:15:45;13.90;;;9.00;;
6739;SDS011;3407;49.882;10.920;2022-12-07T07:20:41;14.73;;;9.37;;
6739;SDS011;3407;49.882;10.920;2022-12-07T07:25:36;14.53;;;9.37;;
6739;SDS011;3407;49.882;10.920;2022-12-07T07:30:32;12.07;;;7.67;;
6739;SDS011;3407;49.882;10.920;2022-12-07T07:35:28;19.77;;;9.53;;
6739;SDS011;3407;49.882;10.920;2022-12-07T07:40:26;13.50;;;9.07;;
6739;SDS011;3407;49.882;10.920;2022-12-07T07:45:24;9.60;;;7.30;;
6739;SDS011;3407;49.882;10.920;2022-12-07T07:50:20;12.07;;;8.10;;
6739;SDS011;3407;49.882;10.920;2022-12-07T07:55:16;10.37;;;7.50;;
6739;SDS011;3407;49.882;10.920;2022-12-07T08:00:12;12.43;;;8.33;;
6739;SDS011;3407;49.882;10.920;2022-12-07T08:05:12;12.37;;;8.40;;
6739;SDS011;3407;49.882;10.920;2022-12-07T08:10:09;14.83;;;8.97;;
6739;SDS011;3407;49.882;10.920;2022-12-07T08:15:07;11.77;;;8.23;;
6739;SDS011;3407;49.882;10.920;2022-12-07T08:20:03;13.53;;;9.03;;
6739;SDS011;3407;49.882;10.920;2022-12-07T08:24:59;11.10;;;7.67;;
6739;SDS011;3407;49.882;10.920;2022-12-07T08:29:54;12.67;;;8.97;;
6739;SDS011;3407;49.882;10.920;2022-12-07T08:34:51;12.47;;;8.40;;
6739;SDS011;3407;49.882;10.920;2022-12-07T08:39:47;12.93;;;8.90;;
6739;SDS011;3407;49.882;10.920;2022-12-07T08:44:43;14.17;;;9.77;;
6739;SDS011;3407;49.882;10.920;2022-12-07T08:49:40;15.97;;;8.63;;
6739;SDS011;3407;49.882;10.920;2022-12-07T08:54:39;11.37;;;8.10;;
6739;SDS011;3407;49.882;10.920;2022-12-07T08:59:36;13.43;;;8.13;;
6739;SDS011;3407;49.882;10.920;2022-12-07T09:04:32;12.07;;;7.53;;
6739;SDS011;3407;49.882;10.920;2022-12-07T09:09:28;13.13;;;8.07;;
6739;SDS011;3407;49.882;10.920;2022-12-07T09:14:23;14.47;;;8.70;;
6739;SDS011;3407;49.882;10.920;2022-12-07T09:19:19;13.33;;;8.53;;
6739;SDS011;3407;49.882;10.920;2022-12-07T09:24:14;12.77;;;8.40;;
6739;SDS011;3407;49.882;10.920;2022-12-07T09:29:10;13.13;;;8.33;;
6739;SDS011;3407;49.882;10.920;2022-12-07T09:34:05;11.63;;;8.47;;
6739;SDS011;3407;49.882;10.920;2022-12-07T09:39:02;11.27;;;8.77;;
6739;SDS011;3407;49.882;10.920;2022-12-07T09:44:03;14.70;;;9.23;;
6739;SDS011;3407;49.882;10.920;2022-12-07T09:49:01;14.47;;;8.70;;
6739;SDS011;3407;49.882;10.920;2022-12-07T09:53:57;13.70;;;10.00;;
6739;SDS011;3407;49.882;10.920;2022-12-07T09:58:55;11.53;;;9.13;;
6739;SDS011;3407;49.882;10.920;2022-12-07T10:04:01;15.53;;;8.93;;
6739;SDS011;3407;49.882;10.920;2022-12-07T10:09:13;12.73;;;9.03;;
6739;SDS011;3407;49.882;10.920;2022-12-07T10:14:11;11.90;;;9.07;;
6739;SDS011;3407;49.882;10.920;2022-12-07T10:19:28;11.90;;;8.53;;
6739;SDS011;3407;49.882;10.920;2022-12-07T10:24:25;12.00;;;8.93;;
6739;SDS011;3407;49.882;10.920;2022-12-07T10:29:30;13.63;;;9.40;;
6739;SDS011;3407;49.882;10.920;2022-12-07T10:34:32;12.10;;;9.20;;
6739;SDS011;3407;49.882;10.920;2022-12-07T10:39:29;12.97;;;8.53;;
6739;SDS011;3407;49.882;10.920;2022-12-07T10:44:45;13.77;;;9.07;;
6739;SDS011;3407;49.882;10.920;2022-12-07T11:00:25;11.57;;;7.60;;
6739;SDS011;3407;49.882;10.920;2022-12-07T11:05:27;11.93;;;8.80;;
6739;SDS011;3407;49.882;10.920;2022-12-07T11:15:54;12.13;;;8.57;;
6739;SDS011;3407;49.882;10.920;2022-12-07T11:21:15;11.83;;;9.03;;
6739;SDS011;3407;49.882;10.920;2022-12-07T11:26:30;9.93;;;7.63;;
6739;SDS011;3407;49.882;10.920;2022-12-07T11:37:01;10.50;;;7.47;;
6739;SDS011;3407;49.882;10.920;2022-12-07T11:42:26;11.27;;;7.60;;
6739;SDS011;3407;49.882;10.920;2022-12-07T11:47:36;10.03;;;6.97;;
6739;SDS011;3407;49.882;10.920;2022-12-07T11:52:47;9.03;;;6.93;;
6739;SDS011;3407;49.882;10.920;2022-12-07T11:57:49;9.87;;;7.07;;
6739;SDS011;3407;49.882;10.920;2022-12-07T12:02:55;9.43;;;6.77;;
6739;SDS011;3407;49.882;10.920;2022-12-07T12:08:02;9.43;;;6.50;;
6739;SDS011;3407;49.882;10.920;2022-12-07T12:23:58;8.63;;;6.77;;
6739;SDS011;3407;49.882;10.920;2022-12-07T12:28:59;8.80;;;6.63;;
6739;SDS011;3407;49.882;10.920;2022-12-07T12:33:57;8.43;;;7.13;;
6739;SDS011;3407;49.882;10.920;2022-12-07T12:39:08;9.97;;;6.63;;
6739;SDS011;3407;49.882;10.920;2022-12-07T12:59:23;10.97;;;5.40;;
6739;SDS011;3407;49.882;10.920;2022-12-07T13:04:25;6.47;;;5.87;;
6739;SDS011;3407;49.882;10.920;2022-12-07T13:09:31;6.37;;;5.40;;
6739;SDS011;3407;49.882;10.920;2022-12-07T13:14:42;7.50;;;5.23;;
6739;SDS011;3407;49.882;10.920;2022-12-07T13:19:54;8.40;;;4.67;;
6739;SDS011;3407;49.882;10.920;2022-12-07T13:24:53;7.03;;;5.40;;
6739;SDS011;3407;49.882;10.920;2022-12-07T13:29:51;5.33;;;4.83;;
6739;SDS011;3407;49.882;10.920;2022-12-07T13:34:46;8.70;;;4.97;;
6739;SDS011;3407;49.882;10.920;2022-12-07T13:39:46;5.83;;;4.60;;
6739;SDS011;3407;49.882;10.920;2022-12-07T13:44:44;6.73;;;5.40;;
6739;SDS011;3407;49.882;10.920;2022-12-07T13:49:52;6.03;;;5.43;;
6739;SDS011;3407;49.882;10.920;2022-12-07T13:54:55;5.70;;;5.03;;
6739;SDS011;3407;49.882;10.920;2022-12-07T14:00:02;7.07;;;4.87;;
6739;SDS011;3407;49.882;10.920;2022-12-07T14:05:07;5.33;;;4.73;;
6739;SDS011;3407;49.882;10.920;2022-12-07T14:15:28;6.40;;;5.37;;
6739;SDS011;3407;49.882;10.920;2022-12-07T14:20:37;8.50;;;4.87;;
6739;SDS011;3407;49.882;10.920;2022-12-07T14:26:03;5.13;;;4.63;;
6739;SDS011;3407;49.882;10.920;2022-12-07T14:30:59;5.03;;;4.60;;
6739;SDS011;3407;49.882;10.920;2022-12-07T14:35:55;7.33;;;4.80;;
6739;SDS011;3407;49.882;10.920;2022-12-07T14:40:53;5.90;;;4.70;;
6739;SDS011;3407;49.882;10.920;2022-12-07T14:45:49;7.33;;;4.63;;
6739;SDS011;3407;49.882;10.920;2022-12-07T14:50:45;5.20;;;4.70;;
6739;SDS011;3407;49.882;10.920;2022-12-07T14:55:46;7.00;;;5.00;;
6739;SDS011;3407;49.882;10.920;2022-12-07T15:00:41;4.63;;;4.13;;
6739;SDS011;3407;49.882;10.920;2022-12-07T15:05:37;4.37;;;3.83;;
6739;SDS011;3407;49.882;10.920;2022-12-07T15:10:33;9.47;;;4.47;;
6739;SDS011;3407;49.882;10.920;2022-12-07T15:15:29;6.13;;;4.67;;
6739;SDS011;3407;49.882;10.920;2022-12-07T15:20:25;8.37;;;4.90;;
6739;SDS011;3407;49.882;10.920;2022-12-07T15:25:20;6.53;;;5.10;;
6739;SDS011;3407;49.882;10.920;2022-12-07T15:30:16;7.73;;;5.47;;
6739;SDS011;3407;49.882;10.920;2022-12-07T15:35:11;7.23;;;5.43;;
6739;SDS011;3407;49.882;10.920;2022-12-07T15:40:07;10.40;;;6.70;;
6739;SDS011;3407;49.882;10.920;2022-12-07T15:45:04;10.93;;;6.33;;
6739;SDS011;3407;49.882;10.920;2022-12-07T15:50:02;8.00;;;5.90;;
6739;SDS011;3407;49.882;10.920;2022-12-07T15:55:02;11.03;;;5.77;;
6739;SDS011;3407;49.882;10.920;2022-12-07T15:59:59;6.73;;;5.50;;
6739;SDS011;3407;49.882;10.920;2022-12-07T16:04:55;9.07;;;6.20;;
6739;SDS011;3407;49.882;10.920;2022-12-07T16:09:50;5.87;;;4.90;;
6739;SDS011;3407;49.882;10.920;2022-12-07T16:14:46;7.40;;;5.30;;
6739;SDS011;3407;49.882;10.920;2022-12-07T16:19:42;7.23;;;5.63;;
6739;SDS011;3407;49.882;10.920;2022-12-07T16:24:37;9.77;;;5.77;;
6739;SDS011;3407;49.882;10.920;2022-12-07T16:29:33;8.57;;;5.77;;
6739;SDS011;3407;49.882;10.920;2022-12-07T16:34:28;7.43;;;5.47;;
6739;SDS011;3407;49.882;10.920;2022-12-07T16:39:24;7.87;;;5.97;;
6739;SDS011;3407;49.882;10.920;2022-12-07T16:44:19;9.03;;;5.43;;
6739;SDS011;3407;49.882;10.920;2022-12-07T16:49:15;6.97;;;5.77;;
6739;SDS011;3407;49.882;10.920;2022-12-07T16:54:11;9.63;;;5.57;;
6739;SDS011;3407;49.882;10.920;2022-12-07T16:59:08;10.13;;;5.87;;
6739;SDS011;3407;49.882;10.920;2022-12-07T17:04:03;12.07;;;6.83;;
6739;SDS011;3407;49.882;10.920;2022-12-07T17:08:59;6.60;;;5.70;;
6739;SDS011;3407;49.882;10.920;2022-12-07T17:13:55;9.50;;;5.53;;
6739;SDS011;3407;49.882;10.920;2022-12-07T17:19:10;8.03;;;5.93;;
6739;SDS011;3407;49.882;10.920;2022-12-07T17:24:08;10.73;;;6.60;;
6739;SDS011;3407;49.882;10.920;2022-12-07T17:29:05;8.87;;;6.50;;
6739;SDS011;3407;49.882;10.920;2022-12-07T17:34:02;8.33;;;6.73;;
6739;SDS011;3407;49.882;10.920;2022-12-07T17:38:58;11.20;;;7.30;;
6739;SDS011;3407;49.882;10.920;2022-12-07T17:43:54;10.27;;;7.03;;
6739;SDS011;3407;49.882;10.920;2022-12-07T17:48:53;10.83;;;6.90;;
6739;SDS011;3407;49.882;10.920;2022-12-07T17:53:49;10.50;;;6.40;;
6739;SDS011;3407;49.882;10.920;2022-12-07T17:58:45;9.60;;;7.67;;
6739;SDS011;3407;49.882;10.920;2022-12-07T18:03:41;9.60;;;7.00;;
6739;SDS011;3407;49.882;10.920;2022-12-07T18:08:36;17.80;;;7.83;;
6739;SDS011;3407;49.882;10.920;2022-12-07T18:13:33;9.33;;;7.30;;
6739;SDS011;3407;49.882;10.920;2022-12-07T18:18:31;11.17;;;7.83;;
6739;SDS011;3407;49.882;10.920;2022-12-07T18:23:27;13.70;;;7.87;;
6739;SDS011;3407;49.882;10.920;2022-12-07T18:28:23;11.60;;;7.53;;
6739;SDS011;3407;49.882;10.920;2022-12-07T18:33:18;12.00;;;8.17;;
6739;SDS011;3407;49.882;10.920;2022-12-07T18:38:15;15.67;;;9.10;;
6739;SDS011;3407;49.882;10.920;2022-12-07T18:43:11;13.70;;;8.47;;
6739;SDS011;3407;49.882;10.920;2022-12-07T18:48:08;13.50;;;8.47;;
6739;SDS011;3407;49.882;10.920;2022-12-07T18:53:04;15.50;;;10.13;;
6739;SDS011;3407;49.882;10.920;2022-12-07T18:58:00;20.73;;;11.07;;
6739;SDS011;3407;49.882;10.920;2022-12-07T19:02:56;15.77;;;10.77;;
6739;SDS011;3407;49.882;10.920;2022-12-07T19:07:53;11.63;;;9.60;;
6739;SDS011;3407;49.882;10.920;2022-12-07T19:12:49;18.77;;;10.57;;
6739;SDS011;3407;49.882;10.920;2022-12-07T19:17:44;12.63;;;9.57;;
6739;SDS011;3407;49.882;10.920;2022-12-07T19:22:40;10.97;;;8.80;;
6739;SDS011;3407;49.882;10.920;2022-12-07T19:27:35;10.97;;;8.60;;
6739;SDS011;3407;49.882;10.920;2022-12-07T19:32:31;11.27;;;8.07;;
6739;SDS011;3407;49.882;10.920;2022-12-07T19:37:27;11.60;;;8.13;;
6739;SDS011;3407;49.882;10.920;2022-12-07T19:42:22;12.10;;;9.30;;
6739;SDS011;3407;49.882;10.920;2022-12-07T19:47:18;15.17;;;9.50;;
6739;SDS011;3407;49.882;10.920;2022-12-07T19:52:13;17.97;;;9.57;;
6739;SDS011;3407;49.882;10.920;2022-12-07T19:57:09;14.33;;;9.33;;
6739;SDS011;3407;49.882;10.920;2022-12-07T20:02:10;14.10;;;9.93;;
6739;SDS011;3407;49.882;10.920;2022-12-07T20:07:07;10.67;;;8.77;;
6739;SDS011;3407;49.882;10.920;2022-12-07T20:12:03;14.50;;;9.03;;
6739;SDS011;3407;49.882;10.920;2022-12-07T20:17:17;12.50;;;8.87;;
6739;SDS011;3407;49.882;10.920;2022-12-07T20:22:12;13.40;;;9.93;;
6739;SDS011;3407;49.882;10.920;2022-12-07T20:27:08;11.80;;;9.17;;
6739;SDS011;3407;49.882;10.920;2022-12-07T20:32:03;12.50;;;9.27;;
6739;SDS011;3407;49.882;10.920;2022-12-07T20:36:59;10.60;;;8.33;;
6739;SDS011;3407;49.882;10.920;2022-12-07T20:41:55;13.80;;;9.73;;
6739;SDS011;3407;49.882;10.920;2022-12-07T20:47:09;17.00;;;10.37;;
6739;SDS011;3407;49.882;10.920;2022-12-07T20:52:04;13.43;;;8.77;;
6739;SDS011;3407;49.882;10.920;2022-12-07T20:57:00;14.03;;;8.57;;
6739;SDS011;3407;49.882;10.920;2022-12-07T21:01:55;9.90;;;7.77;;
6739;SDS011;3407;49.882;10.920;2022-12-07T21:06:51;13.27;;;8.50;;
6739;SDS011;3407;49.882;10.920;2022-12-07T21:11:46;12.70;;;8.83;;
6739;SDS011;3407;49.882;10.920;2022-12-07T21:16:42;12.77;;;9.30;;
6739;SDS011;3407;49.882;10.920;2022-12-07T21:21:37;11.23;;;8.43;;
6739;SDS011;3407;49.882;10.920;2022-12-07T21:26:33;13.83;;;9.57;;
6739;SDS011;3407;49.882;10.920;2022-12-07T21:31:30;12.77;;;8.83;;
6739;SDS011;3407;49.882;10.920;2022-12-07T21:36:26;14.63;;;9.90;;
6739;SDS011;3407;49.882;10.920;2022-12-07T21:41:22;15.77;;;9.90;;
6739;SDS011;3407;49.882;10.920;2022-12-07T21:46:22;17.57;;;10.70;;
6739;SDS011;3407;49.882;10.920;2022-12-07T21:51:19;17.93;;;12.33;;
6739;SDS011;3407;49.882;10.920;2022-12-07T21:56:20;15.77;;;10.77;;
6739;SDS011;3407;49.882;10.920;2022-12-07T22:01:24;15.37;;;10.47;;
6739;SDS011;3407;49.882;10.920;2022-12-07T22:06:22;13.83;;;9.83;;
6739;SDS011;3407;49.882;10.920;2022-12-07T22:11:19;14.37;;;10.43;;
6739;SDS011;3407;49.882;10.920;2022-12-07T22:16:14;14.73;;;9.67;;
6739;SDS011;3407;49.882;10.920;2022-12-07T22:21:10;17.43;;;11.53;;
6739;SDS011;3407;49.882;10.920;2022-12-07T22:26:09;12.70;;;10.07;;
6739;SDS011;3407;49.882;10.920;2022-12-07T22:31:07;14.00;;;10.13;;
6739;SDS011;3407;49.882;10.920;2022-12-07T22:36:04;14.20;;;9.93;;
6739;SDS011;3407;49.882;10.920;2022-12-07T22:41:06;17.23;;;10.23;;
6739;SDS011;3407;49.882;10.920;2022-12-07T22:46:04;15.73;;;10.37;;
6739;SDS011;3407;49.882;10.920;2022-12-07T22:50:59;15.20;;;9.80;;
6739;SDS011;3407;49.882;10.920;2022-12-07T22:55:55;17.50;;;10.50;;
6739;SDS011;3407;49.882;10.920;2022-12-07T23:00:51;15.33;;;10.17;;
6739;SDS011;3407;49.882;10.920;2022-12-07T23:05:48;13.90;;;10.90;;
6739;SDS011;3407;49.882;10.920;2022-12-07T23:10:44;19.10;;;10.83;;
6739;SDS011;3407;49.882;10.920;2022-12-07T23:15:41;16.80;;;11.60;;
6739;SDS011;3407;49.882;10.920;2022-12-07T23:20:37;17.70;;;11.37;;
6739;SDS011;3407;49.882;10.920;2022-12-07T23:25:32;17.97;;;12.03;;
6739;SDS011;3407;49.882;10.920;2022-12-07T23:30:28;16.87;;;11.50;;
6739;SDS011;3407;49.882;10.920;2022-12-07T23:35:23;17.00;;;11.27;;
6739;SDS011;3407;49.882;10.920;2022-12-07T23:40:19;20.00;;;12.07;;
6739;SDS011;3407;49.882;10.920;2022-12-07T23:45:14;17.23;;;10.73;;
6739;SDS011;3407;49.882;10.920;2022-12-07T23:50:10;17.40;;;11.13;;
6739;SDS011;3407;49.882;10.920;2022-12-07T23:55:06;17.27;;;11.77;;
